Orchard Park, New York
Current Conditions -  °F | °C
As of 5:54 AM on Wednesday 22 Oct 2014 (Local Time) from KBUF Reporting Station
Overcast Overcast  
Wind Chill: 41°   Ceiling: 1900
Heat Index: 45°   Visibility: 10mi
Dew Point: 40°   Wind: 8mph
Humidity: 82%   Direction: 20°NNE
Pressure: 30.15"   Gusts: NA
Location:  42.77°N, 78.74°W
Report Text: KBUF 220954Z 02007KT 10SM OVC019 07/04 A3015 RMK AO2 SLP215 T00720044
Loading
Personal Weather Stations






























Interactive Weather Map
Tropical Storm Tracking
New forecast layout! Learn more

10-Day Weather Forecast

Advertisements
Track Severe Weather on mobile